PWSweather.com
Personal Weather Stations
Station Observations
SPARKSRC
St. Petersburg, FL 33716

St. Petersburg, FL 33716

Lat: 27.876101, Lon: -82.657194

Elevation: 13

Station Type: Zephyr PWS-1000TD

Latest ConditionsUpdated 2:10:01 AM EDT Thursday, Oct 18, 2018
Currently Today's Max Today's Min Today's Average
Temperature 78.4°F25.8°C 80.2°F26.8°C 78.4°F25.8°C 79.1°F26.2°C
Dew Point 70.3°F21.3°C 71.6°F22.0°C 70.1°F21.2°C 70.7°F21.5°C
Winds 2.2 mph ENE3.5 kmh ENE 3.8 mph -6.1 kmh - - 2.6 mph 4.2 kmh
Wind Gusts 5.4 mph8.7 kmh 6.0 mph9.7 kmh - -
Humidity 76% 76% 75% 75%
Pressure 30.03 in1016.9 mb 30.04 in1017.3 mb 30.03 in1016.9 mb -
Hour Temp Dew Point Humidity Winds Wind Gusts Pressure Precip Precip Rate Daily Precip Total
02:10 AM 78.4°F25.8°C 70.3°F21.3°C 76% 2.2 mph ENE3.5 kmh ENE 5.4 mph8.7 kmh 30.03 in1016.9 mb 0.00 in0.0 mm 0.00 in0.0 mm 0.00 in0.0 mm
02:05 AM 78.4°F25.8°C 70.3°F21.3°C 76% 2.2 mph ENE3.5 kmh ENE 5.4 mph8.7 kmh 30.03 in1016.9 mb 0.00 in0.0 mm 0.00 in0.0 mm 0.00 in0.0 mm
02:00 AM 78.4°F25.8°C 70.3°F21.3°C 76% 3.1 mph E5.0 kmh E 5.4 mph8.7 kmh 30.03 in1016.9 mb 0.00 in0.0 mm 0.00 in0.0 mm 0.00 in0.0 mm
01:55 AM 78.4°F25.8°C 70.3°F21.3°C 76% 3.1 mph E5.0 kmh E 4.5 mph7.2 kmh 30.04 in1017.3 mb 0.00 in0.0 mm 0.00 in0.0 mm 0.00 in0.0 mm
01:50 AM 78.4°F25.8°C 70.3°F21.3°C 76% 3.1 mph E5.0 kmh E 5.4 mph8.7 kmh 30.03 in1016.9 mb 0.00 in0.0 mm 0.00 in0.0 mm 0.00 in0.0 mm
01:45 AM 78.4°F25.8°C 70.3°F21.3°C 76% 3.1 mph ENE5.0 kmh ENE 5.4 mph8.7 kmh 30.03 in1016.9 mb 0.00 in0.0 mm 0.00 in0.0 mm 0.00 in0.0 mm
01:40 AM 78.6°F25.9°C 70.1°F21.2°C 75% 3.1 mph ENE5.0 kmh ENE 5.4 mph8.7 kmh 30.03 in1016.9 mb 0.00 in0.0 mm 0.00 in0.0 mm 0.00 in0.0 mm
01:35 AM 78.6°F25.9°C 70.1°F21.2°C 75% 3.1 mph E5.0 kmh E 6.0 mph9.7 kmh 30.04 in1017.3 mb 0.00 in0.0 mm 0.00 in0.0 mm 0.00 in0.0 mm
01:30 AM 78.6°F25.9°C 70.1°F21.2°C 75% 2.2 mph E3.5 kmh E 6.0 mph9.7 kmh 30.03 in1016.9 mb 0.00 in0.0 mm 0.00 in0.0 mm 0.00 in0.0 mm
01:25 AM 78.8°F26.0°C 70.3°F21.3°C 75% 3.1 mph E5.0 kmh E 6.0 mph9.7 kmh 30.03 in1016.9 mb 0.00 in0.0 mm 0.00 in0.0 mm 0.00 in0.0 mm
01:20 AM 78.8°F26.0°C 70.3°F21.3°C 75% 3.8 mph E6.1 kmh E 6.0 mph9.7 kmh 30.03 in1016.9 mb 0.00 in0.0 mm 0.00 in0.0 mm 0.00 in0.0 mm
01:15 AM 78.8°F26.0°C 70.3°F21.3°C 75% 3.8 mph E6.1 kmh E 5.4 mph8.7 kmh 30.03 in1016.9 mb 0.00 in0.0 mm 0.00 in0.0 mm 0.00 in0.0 mm
01:10 AM 78.8°F26.0°C 70.3°F21.3°C 75% 3.1 mph E5.0 kmh E 4.5 mph7.2 kmh 30.03 in1016.9 mb 0.00 in0.0 mm 0.00 in0.0 mm 0.00 in0.0 mm
01:05 AM 79.2°F26.2°C 70.6°F21.4°C 75% 2.2 mph E3.5 kmh E 3.8 mph6.1 kmh 30.04 in1017.3 mb 0.00 in0.0 mm 0.00 in0.0 mm 0.00 in0.0 mm
01:00 AM 79.2°F26.2°C 70.6°F21.4°C 75% 2.2 mph E3.5 kmh E 5.4 mph8.7 kmh 30.04 in1017.3 mb 0.00 in0.0 mm 0.00 in0.0 mm 0.00 in0.0 mm
12:55 AM 79.3°F26.3°C 70.8°F21.6°C 75% 1.6 mph E2.6 kmh E 5.4 mph8.7 kmh 30.03 in1016.9 mb 0.00 in0.0 mm 0.00 in0.0 mm 0.00 in0.0 mm
12:50 AM 79.2°F26.2°C 70.6°F21.4°C 75% 3.8 mph NE6.1 kmh NE 5.4 mph8.7 kmh 30.03 in1016.9 mb 0.00 in0.0 mm 0.00 in0.0 mm 0.00 in0.0 mm
12:45 AM 79.5°F26.4°C 71.0°F21.7°C 75% 3.1 mph NE5.0 kmh NE 5.4 mph8.7 kmh 30.03 in1016.9 mb 0.00 in0.0 mm 0.00 in0.0 mm 0.00 in0.0 mm
12:40 AM 79.5°F26.4°C 71.0°F21.7°C 75% 2.2 mph NE3.5 kmh NE 5.4 mph8.7 kmh 30.03 in1016.9 mb 0.00 in0.0 mm 0.00 in0.0 mm 0.00 in0.0 mm
12:35 AM 79.5°F26.4°C 71.0°F21.7°C 75% 2.2 mph E3.5 kmh E 4.5 mph7.2 kmh 30.03 in1016.9 mb 0.00 in0.0 mm 0.00 in0.0 mm 0.00 in0.0 mm
12:30 AM 79.7°F26.5°C 71.1°F21.7°C 75% 1.6 mph E2.6 kmh E 4.5 mph7.2 kmh 30.04 in1017.3 mb 0.00 in0.0 mm 0.00 in0.0 mm 0.00 in0.0 mm
12:25 AM 79.7°F26.5°C 71.1°F21.7°C 75% 2.2 mph E3.5 kmh E 4.5 mph7.2 kmh 30.04 in1017.3 mb 0.00 in0.0 mm 0.00 in0.0 mm 0.00 in0.0 mm
12:20 AM 79.9°F26.6°C 71.3°F21.8°C 75% 2.2 mph ENE3.5 kmh ENE 4.5 mph7.2 kmh 30.04 in1017.3 mb 0.00 in0.0 mm 0.00 in0.0 mm 0.00 in0.0 mm
12:15 AM 80.1°F26.7°C 71.5°F21.9°C 75% 1.6 mph NE2.6 kmh NE 4.5 mph7.2 kmh 30.04 in1017.3 mb 0.00 in0.0 mm 0.00 in0.0 mm 0.00 in0.0 mm
12:10 AM 80.1°F26.7°C 71.5°F21.9°C 75% 2.2 mph ENE3.5 kmh ENE 4.5 mph7.2 kmh 30.04 in1017.3 mb 0.00 in0.0 mm 0.00 in0.0 mm 0.00 in0.0 mm
12:05 AM 80.1°F26.7°C 71.5°F21.9°C 75% 2.2 mph E3.5 kmh E 5.4 mph8.7 kmh 30.04 in1017.3 mb 0.00 in0.0 mm 0.00 in0.0 mm 0.00 in0.0 mm
12:00 AM 80.2°F26.8°C 71.6°F22.0°C 75% 1.6 mph E2.6 kmh E 5.4 mph8.7 kmh 30.04 in1017.3 mb 0.00 in0.0 mm 0.00 in0.0 mm 0.00 in0.0 mm